createdAt,value
2016-06-08T00:00:50.730Z,0
2016-06-08T00:01:44.484Z,0
2016-06-08T00:02:47.830Z,0
2016-06-08T00:03:44.769Z,0
2016-06-08T00:04:44.319Z,0
2016-06-08T00:05:44.275Z,0
2016-06-08T00:06:44.247Z,0
2016-06-08T00:07:44.202Z,0
2016-06-08T00:08:44.158Z,0
2016-06-08T00:09:50.349Z,0
2016-06-08T00:10:47.116Z,0
2016-06-08T00:11:44.666Z,0
2016-06-08T00:12:43.981Z,0
2016-06-08T00:13:46.937Z,0
2016-06-08T00:14:43.862Z,0
2016-06-08T00:15:43.833Z,0
2016-06-08T00:16:46.789Z,0
2016-06-08T00:17:43.588Z,0
2016-06-08T00:18:43.544Z,0
2016-06-08T00:19:43.687Z,0
2016-06-08T00:20:43.799Z,0
2016-06-08T00:21:46.490Z,0
2016-06-08T00:22:43.524Z,0
2016-06-08T00:23:43.464Z,0
2016-06-08T00:24:43.419Z,0
2016-06-08T00:25:43.392Z,0
2016-06-08T00:26:43.565Z,0
2016-06-08T00:27:52.350Z,0
2016-06-08T00:28:43.445Z,0
2016-06-08T00:29:43.261Z,0
2016-06-08T00:30:46.326Z,0
2016-06-08T00:31:43.111Z,0
2016-06-08T00:32:46.082Z,0
2016-06-08T00:33:46.741Z,0
2016-06-08T00:34:42.978Z,0
2016-06-08T00:35:48.933Z,0
2016-06-08T00:36:48.874Z,0
2016-06-08T00:37:42.845Z,0
2016-06-08T00:38:42.785Z,0
2016-06-08T00:39:48.773Z,0
2016-06-08T00:40:48.932Z,0
2016-06-08T00:41:43.716Z,0
2016-06-08T00:42:45.672Z,0
2016-06-08T00:43:45.549Z,0
2016-06-08T00:44:42.724Z,0
2016-06-08T00:45:45.476Z,0
2016-06-08T00:46:42.448Z,0
2016-06-08T00:47:48.435Z,0
2016-06-08T00:48:45.532Z,0
2016-06-08T00:49:48.331Z,0
2016-06-08T00:50:42.224Z,0
2016-06-08T00:51:45.398Z,0
2016-06-08T00:52:45.135Z,0
2016-06-08T00:53:45.529Z,0
2016-06-08T00:54:45.297Z,0
2016-06-08T00:55:48.019Z,0
2016-06-08T00:56:42.756Z,0
2016-06-08T00:57:48.009Z,0
2016-06-08T00:58:45.543Z,0
2016-06-08T00:59:45.045Z,0
2016-06-08T01:00:44.767Z,0
2016-06-08T01:01:47.956Z,0
2016-06-08T01:02:44.709Z,0
2016-06-08T01:03:44.869Z,0
2016-06-08T01:04:41.622Z,0
2016-06-08T01:05:44.749Z,0
2016-06-08T01:06:51.158Z,0
2016-06-08T01:07:41.675Z,0
2016-06-08T01:08:41.413Z,0
2016-06-08T01:09:44.275Z,0
2016-06-08T01:10:41.418Z,0
2016-06-08T01:11:45.469Z,0
2016-06-08T01:12:41.111Z,0
2016-06-08T01:13:41.239Z,0
2016-06-08T01:14:44.164Z,0
2016-06-08T01:15:47.119Z,0
2016-06-08T01:16:40.950Z,0
2016-06-08T01:17:43.999Z,0
2016-06-08T01:18:40.971Z,0
2016-06-08T01:19:46.958Z,0
2016-06-08T01:20:44.071Z,0
2016-06-08T01:21:43.838Z,0
2016-06-08T01:22:43.779Z,0
2016-06-08T01:23:46.751Z,0
2016-06-08T01:24:43.721Z,0
2016-06-08T01:25:46.724Z,0
2016-06-08T01:26:44.273Z,0
2016-06-08T01:27:43.762Z,0
2016-06-08T01:28:55.545Z,0
2016-06-08T01:29:43.314Z,0
2016-06-08T01:30:40.613Z,0
2016-06-08T01:31:43.381Z,0
2016-06-08T01:32:43.337Z,0
2016-06-08T01:33:40.292Z,0
2016-06-08T01:34:40.217Z,0
2016-06-08T01:35:43.392Z,0
2016-06-08T01:36:46.020Z,0
2016-06-08T01:37:43.131Z,0
2016-06-08T01:38:40.072Z,0
2016-06-08T01:39:40.215Z,0
2016-06-08T01:40:42.968Z,0
2016-06-08T01:41:40.533Z,0
2016-06-08T01:42:43.160Z,0
2016-06-08T01:43:42.820Z,0
2016-06-08T01:44:39.775Z,0
2016-06-08T01:45:39.700Z,0
2016-06-08T01:46:39.703Z,0
2016-06-08T01:47:48.690Z,0
2016-06-08T01:48:42.505Z,0
2016-06-08T01:49:45.820Z,0
2016-06-08T01:50:42.510Z,0
2016-06-08T01:51:42.904Z,0
2016-06-08T01:52:39.422Z,0
2016-06-08T01:53:39.565Z,0
2016-06-08T01:54:42.318Z,0
2016-06-08T01:55:42.289Z,0
2016-06-08T01:56:39.839Z,0
2016-06-08T01:57:39.545Z,0
2016-06-08T01:58:39.173Z,0
2016-06-08T01:59:48.098Z,0
2016-06-08T02:00:39.022Z,0
2016-06-08T02:01:39.025Z,0
2016-06-08T02:02:38.965Z,0
2016-06-08T02:03:42.311Z,0
2016-06-08T02:04:41.876Z,0
2016-06-08T02:05:42.035Z,0
2016-06-08T02:06:41.756Z,0
2016-06-08T02:07:44.759Z,0
2016-06-08T02:08:41.715Z,0
2016-06-08T02:09:50.874Z,0
2016-06-08T02:10:38.595Z,0
2016-06-08T02:11:46.722Z,0
2016-06-08T02:12:47.664Z,0
2016-06-08T02:13:38.853Z,0
2016-06-08T02:14:41.810Z,0
2016-06-08T02:15:41.359Z,0
2016-06-08T02:16:38.315Z,0
2016-06-08T02:17:41.286Z,0
2016-06-08T02:18:44.227Z,0
2016-06-08T02:19:41.213Z,0
2016-06-08T02:20:41.357Z,0
2016-06-08T02:21:38.093Z,0
2016-06-08T02:22:41.049Z,0
2016-06-08T02:23:37.990Z,0
2016-06-08T02:24:43.993Z,0
2016-06-08T02:25:40.948Z,0
2016-06-08T02:26:38.560Z,0
2016-06-08T02:27:37.547Z,0
2016-06-08T02:28:37.784Z,0
2016-06-08T02:29:40.740Z,0
2016-06-08T02:30:37.664Z,0
2016-06-08T02:31:37.840Z,0
2016-06-08T02:32:40.608Z,0
2016-06-08T02:33:40.548Z,0
2016-06-08T02:34:37.364Z,0
2016-06-08T02:35:40.475Z,0
2016-06-08T02:36:37.244Z,0
2016-06-08T02:37:37.387Z,0
2016-06-08T02:38:40.342Z,0
2016-06-08T02:39:37.486Z,0
2016-06-08T02:40:37.270Z,0
2016-06-08T02:41:40.178Z,0
2016-06-08T02:42:37.869Z,0
2016-06-08T02:43:37.090Z,0
2016-06-08T02:44:40.046Z,0
2016-06-08T02:45:40.019Z,0
2016-06-08T02:46:39.957Z,0
2016-06-08T02:47:36.617Z,0
2016-06-08T02:48:42.713Z,0
2016-06-08T02:49:39.825Z,0
2016-06-08T02:50:42.782Z,0
2016-06-08T02:51:39.737Z,0
2016-06-08T02:52:39.677Z,0
2016-06-08T02:53:39.836Z,0
2016-06-08T02:54:36.620Z,0
2016-06-08T02:55:36.607Z,0
2016-06-08T02:56:39.673Z,0
2016-06-08T02:57:40.175Z,0
2016-06-08T02:58:39.428Z,0
2016-06-08T02:59:36.383Z,0
2016-06-08T03:00:36.323Z,0
2016-06-08T03:01:36.265Z,0
2016-06-08T03:02:39.063Z,0
2016-06-08T03:03:39.207Z,0
2016-06-08T03:04:42.147Z,0
2016-06-08T03:05:38.931Z,0
2016-06-08T03:06:39.262Z,0
2016-06-08T03:07:36.389Z,0
2016-06-08T03:08:35.970Z,0
2016-06-08T03:09:35.895Z,0
2016-06-08T03:10:35.694Z,0
2016-06-08T03:11:35.822Z,0
2016-06-08T03:12:36.341Z,0
2016-06-08T03:13:42.155Z,0
2016-06-08T03:14:35.674Z,0
2016-06-08T03:15:35.816Z,0
2016-06-08T03:16:38.663Z,0
2016-06-08T03:17:38.542Z,0
2016-06-08T03:18:35.497Z,0
2016-06-08T03:19:35.422Z,0
2016-06-08T03:20:35.487Z,0
2016-06-08T03:21:35.349Z,0
2016-06-08T03:22:35.320Z,0
2016-06-08T03:23:35.151Z,0
2016-06-08T03:24:35.091Z,0
2016-06-08T03:25:35.172Z,0
2016-06-08T03:26:35.644Z,0
2016-06-08T03:27:35.709Z,0
2016-06-08T03:28:34.884Z,0
2016-06-08T03:29:41.026Z,5
2016-06-08T03:30:34.935Z,5
2016-06-08T03:31:34.734Z,5
2016-06-08T03:32:38.050Z,5
2016-06-08T03:33:37.663Z,5
2016-06-08T03:34:34.946Z,5
2016-06-08T03:35:34.699Z,5
2016-06-08T03:36:34.670Z,5
2016-06-08T03:37:37.439Z,5
2016-06-08T03:38:37.582Z,5
2016-06-08T03:39:37.538Z,5
2016-06-08T03:40:37.509Z,5
2016-06-08T03:41:37.434Z,5
2016-06-08T03:42:40.640Z,5
2016-06-08T03:43:37.345Z,5
2016-06-08T03:44:34.302Z,10
2016-06-08T03:45:34.258Z,10
2016-06-08T03:46:34.416Z,10
2016-06-08T03:47:37.152Z,10
2016-06-08T03:48:37.109Z,10
2016-06-08T03:49:34.065Z,10
2016-06-08T03:50:40.068Z,10
2016-06-08T03:51:34.179Z,10
2016-06-08T03:52:43.198Z,10
2016-06-08T03:53:36.872Z,10
2016-06-08T03:54:36.829Z,15
2016-06-08T03:55:39.799Z,15
2016-06-08T03:56:39.787Z,15
2016-06-08T03:57:37.007Z,15
2016-06-08T03:58:39.527Z,15
2016-06-08T03:59:33.624Z,15
2016-06-08T04:00:36.407Z,15
2016-06-08T04:01:36.518Z,20
2016-06-08T04:02:33.490Z,20
2016-06-08T04:03:39.290Z,20
2016-06-08T04:04:36.433Z,20
2016-06-08T04:05:33.389Z,20
2016-06-08T04:06:36.501Z,20
2016-06-08T04:07:33.239Z,25
2016-06-08T04:08:33.209Z,25
2016-06-08T04:09:33.228Z,25
2016-06-08T04:10:33.106Z,25
2016-06-08T04:11:32.920Z,30
2016-06-08T04:12:33.908Z,30
2016-06-08T04:13:33.175Z,30
2016-06-08T04:14:32.929Z,30
2016-06-08T04:15:33.073Z,30
2016-06-08T04:16:32.841Z,35
2016-06-08T04:17:32.796Z,35
2016-06-08T04:18:35.736Z,35
2016-06-08T04:19:35.911Z,35
2016-06-08T04:20:32.835Z,35
2016-06-08T04:21:32.604Z,40
2016-06-08T04:22:35.544Z,40
2016-06-08T04:23:35.516Z,40
2016-06-08T04:24:33.080Z,40
2016-06-08T04:25:32.443Z,40
2016-06-08T04:26:32.368Z,40
2016-06-08T04:27:36.057Z,40
2016-06-08T04:28:35.654Z,40
2016-06-08T04:29:32.437Z,40
2016-06-08T04:30:32.207Z,40
2016-06-08T04:31:35.382Z,40
2016-06-08T04:32:35.524Z,40
2016-06-08T04:33:32.074Z,40
2016-06-08T04:34:35.014Z,40
2016-06-08T04:35:32.017Z,40
2016-06-08T04:36:34.941Z,40
2016-06-08T04:37:31.881Z,40
2016-06-08T04:38:31.697Z,40
2016-06-08T04:39:35.387Z,40
2016-06-08T04:40:34.780Z,40
2016-06-08T04:41:32.423Z,40
2016-06-08T04:42:32.364Z,40
2016-06-08T04:43:31.475Z,40
2016-06-08T04:44:34.588Z,40
2016-06-08T04:45:40.793Z,40
2016-06-08T04:46:34.469Z,40
2016-06-08T04:47:32.268Z,40
2016-06-08T04:48:34.380Z,40
2016-06-08T04:49:31.538Z,40
2016-06-08T04:50:31.275Z,40
2016-06-08T04:51:31.247Z,40
2016-06-08T04:52:34.265Z,40
2016-06-08T04:53:31.347Z,40
2016-06-08T04:54:31.130Z,40
2016-06-08T04:55:31.071Z,45
2016-06-08T04:56:30.995Z,45
2016-06-08T04:57:36.810Z,45
2016-06-08T04:58:31.688Z,45
2016-06-08T04:59:33.878Z,45
2016-06-08T05:00:30.849Z,45
2016-06-08T05:01:30.789Z,45
2016-06-08T05:02:30.761Z,45
2016-06-08T05:03:30.733Z,45
2016-06-08T05:04:30.673Z,45
2016-06-08T05:05:33.613Z,45
2016-06-08T05:06:30.431Z,45
2016-06-08T05:07:30.522Z,45
2016-06-08T05:08:31.427Z,45
2016-06-08T05:09:33.454Z,45
2016-06-08T05:10:36.843Z,45
2016-06-08T05:11:30.384Z,50
2016-06-08T05:12:33.845Z,50
2016-06-08T05:13:34.585Z,50
2016-06-08T05:14:33.279Z,50
2016-06-08T05:15:30.223Z,50
2016-06-08T05:16:30.182Z,50
2016-06-08T05:17:29.983Z,50
2016-06-08T05:18:33.159Z,50
2016-06-08T05:19:33.069Z,50
2016-06-08T05:20:33.011Z,50
2016-06-08T05:21:30.202Z,50
2016-06-08T05:22:32.923Z,50
2016-06-08T05:23:30.099Z,50
2016-06-08T05:24:29.836Z,50
2016-06-08T05:25:29.667Z,50
2016-06-08T05:26:29.733Z,50
2016-06-08T05:27:29.579Z,50
2016-06-08T05:28:29.692Z,55
2016-06-08T05:29:29.632Z,55
2016-06-08T05:30:29.776Z,55
2016-06-08T05:31:29.732Z,55
2016-06-08T05:32:32.469Z,55
2016-06-08T05:33:29.441Z,55
2016-06-08T05:34:29.428Z,55
2016-06-08T05:35:32.540Z,55
2016-06-08T05:36:29.292Z,55
2016-06-08T05:37:32.671Z,55
2016-06-08T05:38:29.423Z,55
2016-06-08T05:39:32.159Z,55
2016-06-08T05:40:29.132Z,60
2016-06-08T05:41:29.072Z,60
2016-06-08T05:42:29.762Z,60
2016-06-08T05:43:29.202Z,60
2016-06-08T05:44:31.955Z,60
2016-06-08T05:45:28.911Z,60
2016-06-08T05:46:32.054Z,60
2016-06-08T05:47:28.822Z,60
2016-06-08T05:48:28.622Z,60
2016-06-08T05:49:31.750Z,60
2016-06-08T05:50:28.674Z,60
2016-06-08T05:51:28.614Z,60
2016-06-08T05:52:28.586Z,60
2016-06-08T05:53:28.775Z,60
2016-06-08T05:54:28.482Z,60
2016-06-08T05:55:31.452Z,60
2016-06-08T05:56:34.425Z,60
2016-06-08T05:57:28.193Z,60
2016-06-08T05:58:28.649Z,60
2016-06-08T05:59:34.729Z,60
2016-06-08T06:00:31.216Z,60
2016-06-08T06:01:31.047Z,60
2016-06-08T06:02:28.003Z,60
2016-06-08T06:03:28.365Z,60
2016-06-08T06:04:28.039Z,60
2016-06-08T06:05:37.058Z,60
2016-06-08T06:06:30.936Z,60
2016-06-08T06:07:33.923Z,60
2016-06-08T06:08:27.862Z,60
2016-06-08T06:09:30.834Z,60
2016-06-08T06:10:30.806Z,60
2016-06-08T06:11:27.948Z,60
2016-06-08T06:12:30.670Z,60
2016-06-08T06:13:30.689Z,60
2016-06-08T06:14:33.614Z,60
2016-06-08T06:15:30.570Z,60
2016-06-08T06:16:30.712Z,60
2016-06-08T06:17:33.481Z,60
2016-06-08T06:18:27.514Z,60
2016-06-08T06:19:30.580Z,60
2016-06-08T06:20:36.333Z,60
2016-06-08T06:21:30.710Z,60
2016-06-08T06:22:33.275Z,65
2016-06-08T06:23:33.060Z,65
2016-06-08T06:24:27.141Z,65
2016-06-08T06:25:26.971Z,60
2016-06-08T06:26:30.068Z,60
2016-06-08T06:27:27.008Z,60
2016-06-08T06:28:28.354Z,65
2016-06-08T06:29:29.951Z,65
2016-06-08T06:30:29.890Z,65
2016-06-08T06:31:29.815Z,65
2016-06-08T06:32:29.975Z,65
2016-06-08T06:33:29.758Z,65
2016-06-08T06:34:26.745Z,65
2016-06-08T06:35:27.468Z,65
2016-06-08T06:36:38.907Z,65
2016-06-08T06:37:29.644Z,65
2016-06-08T06:38:32.740Z,65
2016-06-08T06:39:26.353Z,65
2016-06-08T06:40:29.418Z,65
2016-06-08T06:41:26.779Z,65
2016-06-08T06:42:29.329Z,65
2016-06-08T06:43:30.114Z,65
2016-06-08T06:44:29.460Z,65
2016-06-08T06:45:26.369Z,65
2016-06-08T06:46:30.184Z,65
2016-06-08T06:47:34.968Z,65
2016-06-08T06:48:29.095Z,65
2016-06-08T06:49:32.036Z,65
2016-06-08T06:50:29.007Z,65
2016-06-08T06:51:28.947Z,70
2016-06-08T06:52:25.900Z,70
2016-06-08T06:53:26.091Z,70
2016-06-08T06:54:31.847Z,75
2016-06-08T06:55:25.769Z,75
2016-06-08T06:56:31.758Z,75
2016-06-08T06:57:25.508Z,75
2016-06-08T06:58:25.869Z,75
2016-06-08T06:59:25.404Z,75
2016-06-08T07:00:31.455Z,75
2016-06-08T07:01:28.490Z,75
2016-06-08T07:02:28.461Z,75
2016-06-08T07:03:28.246Z,75
2016-06-08T07:04:28.983Z,75
2016-06-08T07:05:28.968Z,75
2016-06-08T07:06:25.328Z,75
2016-06-08T07:07:28.429Z,75
2016-06-08T07:08:25.179Z,75
2016-06-08T07:09:25.040Z,75
2016-06-08T07:10:25.074Z,75
2016-06-08T07:11:25.139Z,75
2016-06-08T07:12:25.032Z,75
2016-06-08T07:13:25.488Z,75
2016-06-08T07:14:24.912Z,75
2016-06-08T07:15:24.915Z,75
2016-06-08T07:16:24.839Z,75
2016-06-08T07:17:24.858Z,75
2016-06-08T07:18:25.159Z,70
2016-06-08T07:19:24.605Z,75
2016-06-08T07:20:24.731Z,75
2016-06-08T07:21:27.659Z,75
2016-06-08T07:22:27.551Z,75
2016-06-08T07:23:27.512Z,75
2016-06-08T07:24:24.515Z,75
2016-06-08T07:25:27.421Z,70
2016-06-08T07:26:24.484Z,70
2016-06-08T07:27:24.347Z,70
2016-06-08T07:28:24.397Z,70
2016-06-08T07:29:24.462Z,70
2016-06-08T07:30:24.230Z,70
2016-06-08T07:31:24.530Z,70
2016-06-08T07:32:24.219Z,75
2016-06-08T07:33:24.081Z,75
2016-06-08T07:34:24.225Z,75
2016-06-08T07:35:24.203Z,75
2016-06-08T07:36:24.064Z,75
2016-06-08T07:37:24.098Z,75
2016-06-08T07:38:24.242Z,75
2016-06-08T07:39:27.638Z,75
2016-06-08T07:40:26.638Z,75
2016-06-08T07:41:23.927Z,75
2016-06-08T07:42:23.695Z,75
2016-06-08T07:43:26.588Z,75
2016-06-08T07:44:23.482Z,75
2016-06-08T07:45:23.563Z,75
2016-06-08T07:46:23.533Z,75
2016-06-08T07:47:23.677Z,75
2016-06-08T07:48:23.429Z,75
2016-06-08T07:49:26.385Z,70
2016-06-08T07:50:23.451Z,70
2016-06-08T07:51:23.339Z,70
2016-06-08T07:52:24.388Z,70
2016-06-08T07:53:23.298Z,65
2016-06-08T07:54:23.316Z,70
2016-06-08T07:55:23.256Z,70
2016-06-08T07:56:29.139Z,75
2016-06-08T07:57:23.170Z,75
2016-06-08T07:58:23.578Z,75
2016-06-08T07:59:26.769Z,75
2016-06-08T08:00:25.897Z,75
2016-06-08T08:01:22.867Z,75
2016-06-08T08:02:22.823Z,75
2016-06-08T08:03:23.280Z,75
2016-06-08T08:04:28.988Z,75
2016-06-08T08:05:22.722Z,75
2016-06-08T08:06:22.491Z,75
2016-06-08T08:07:22.431Z,75
2016-06-08T08:08:25.575Z,75
2016-06-08T08:09:23.172Z,75
2016-06-08T08:10:28.786Z,75
2016-06-08T08:11:22.414Z,75
2016-06-08T08:12:22.385Z,80
2016-06-08T08:13:26.716Z,80
2016-06-08T08:14:22.039Z,75
2016-06-08T08:15:22.244Z,70
2016-06-08T08:16:22.247Z,75
2016-06-08T08:17:22.046Z,70
2016-06-08T08:18:25.471Z,70
2016-06-08T08:19:22.083Z,70
2016-06-08T08:20:21.993Z,70
2016-06-08T08:21:22.213Z,75
2016-06-08T08:22:24.966Z,75
2016-06-08T08:23:22.093Z,80
2016-06-08T08:24:21.910Z,80
2016-06-08T08:25:21.991Z,80
2016-06-08T08:26:22.461Z,80
2016-06-08T08:27:24.746Z,80
2016-06-08T08:28:22.764Z,80
2016-06-08T08:29:21.704Z,80
2016-06-08T08:30:21.566Z,80
2016-06-08T08:31:21.756Z,80
2016-06-08T08:32:21.509Z,80
2016-06-08T08:33:21.511Z,85
2016-06-08T08:34:21.451Z,85
2016-06-08T08:35:24.751Z,85
2016-06-08T08:36:24.191Z,85
2016-06-08T08:37:24.709Z,85
2016-06-08T08:38:21.259Z,85
2016-06-08T08:39:21.434Z,85
2016-06-08T08:40:21.172Z,85
2016-06-08T08:41:21.111Z,85
2016-06-08T08:42:21.067Z,90
2016-06-08T08:43:21.226Z,90
2016-06-08T08:44:20.933Z,90
2016-06-08T08:45:20.950Z,90
2016-06-08T08:46:23.891Z,90
2016-06-08T08:47:20.877Z,90
2016-06-08T08:48:21.599Z,90
2016-06-08T08:49:21.163Z,90
2016-06-08T08:50:23.823Z,90
2016-06-08T08:51:20.544Z,90
2016-06-08T08:52:20.656Z,90
2016-06-08T08:53:20.502Z,90
2016-06-08T08:54:26.552Z,90
2016-06-08T08:55:20.492Z,90
2016-06-08T08:56:23.760Z,90
2016-06-08T08:57:20.482Z,90
2016-06-08T08:58:20.391Z,90
2016-06-08T08:59:21.660Z,90
2016-06-08T09:00:19.976Z,90
2016-06-08T09:01:20.070Z,90
2016-06-08T09:02:23.184Z,90
2016-06-08T09:03:20.171Z,90
2016-06-08T09:04:23.189Z,90
2016-06-08T09:05:23.114Z,90
2016-06-08T09:06:20.100Z,90
2016-06-08T09:07:20.025Z,90
2016-06-08T09:08:22.934Z,90
2016-06-08T09:09:19.920Z,90
2016-06-08T09:10:20.267Z,90
2016-06-08T09:11:19.848Z,90
2016-06-08T09:12:19.772Z,90
2016-06-08T09:13:20.791Z,90
2016-06-08T09:14:22.606Z,90
2016-06-08T09:15:19.781Z,90
2016-06-08T09:16:19.611Z,90
2016-06-08T09:17:23.958Z,90
2016-06-08T09:18:25.742Z,90
2016-06-08T09:19:22.666Z,90
2016-06-08T09:20:19.669Z,90
2016-06-08T09:21:19.500Z,90
2016-06-08T09:22:19.331Z,90
2016-06-08T09:23:22.177Z,90
2016-06-08T09:24:19.477Z,90
2016-06-08T09:25:19.229Z,90
2016-06-08T09:26:19.201Z,85
2016-06-08T09:27:19.469Z,90
2016-06-08T09:28:19.316Z,90
2016-06-08T09:29:20.115Z,90
2016-06-08T09:30:25.492Z,90
2016-06-08T09:31:18.637Z,85
2016-06-08T09:32:19.311Z,85
2016-06-08T09:33:21.845Z,85
2016-06-08T09:34:19.237Z,85
2016-06-08T09:35:18.928Z,85
2016-06-08T09:36:27.993Z,90
2016-06-08T09:37:19.292Z,90
2016-06-08T09:38:24.155Z,90
2016-06-08T09:39:22.501Z,90
2016-06-08T09:40:30.661Z,90
2016-06-08T09:41:18.461Z,90
2016-06-08T09:42:24.494Z,90
2016-06-08T09:43:21.512Z,85
2016-06-08T09:44:18.797Z,90
2016-06-08T09:45:24.643Z,90
2016-06-08T09:46:18.817Z,90
2016-06-08T09:47:18.289Z,90
2016-06-08T09:48:18.213Z,90
2016-06-08T09:49:18.388Z,90
2016-06-08T09:50:18.235Z,90
2016-06-08T09:51:18.502Z,90
2016-06-08T09:52:19.208Z,90
2016-06-08T09:53:17.992Z,90
2016-06-08T09:54:17.996Z,90
2016-06-08T09:55:20.998Z,90
2016-06-08T09:56:17.876Z,95
2016-06-08T09:57:17.924Z,90
2016-06-08T09:58:18.396Z,95
2016-06-08T09:59:17.774Z,100
2016-06-08T10:00:20.870Z,95
2016-06-08T10:01:31.139Z,95
2016-06-08T10:02:20.657Z,95
2016-06-08T10:03:17.613Z,95
2016-06-08T10:04:17.443Z,95
2016-06-08T10:05:20.509Z,95
2016-06-08T10:06:17.371Z,95
2016-06-08T10:07:18.296Z,95
2016-06-08T10:08:17.377Z,95
2016-06-08T10:09:17.831Z,95
2016-06-08T10:10:17.273Z,95
2016-06-08T10:11:17.337Z,100
2016-06-08T10:12:17.184Z,100
2016-06-08T10:13:16.875Z,95
2016-06-08T10:14:17.799Z,95
2016-06-08T10:15:18.020Z,95
2016-06-08T10:16:17.226Z,90
2016-06-08T10:17:16.995Z,90
2016-06-08T10:18:17.044Z,90
2016-06-08T10:19:16.749Z,90
2016-06-08T10:20:20.049Z,95
2016-06-08T10:21:20.161Z,95
2016-06-08T10:22:16.899Z,100
2016-06-08T10:23:16.838Z,100
2016-06-08T10:24:25.201Z,95
2016-06-08T10:25:16.687Z,90
2016-06-08T10:26:19.159Z,95
2016-06-08T10:27:16.552Z,95
2016-06-08T10:28:16.399Z,95
2016-06-08T10:29:21.011Z,95
2016-06-08T10:30:17.279Z,95
2016-06-08T10:31:25.423Z,90
2016-06-08T10:32:16.565Z,90
2016-06-08T10:33:16.397Z,95
2016-06-08T10:34:16.509Z,95
2016-06-08T10:35:19.309Z,100
2016-06-08T10:36:16.373Z,100
2016-06-08T10:37:16.611Z,100
2016-06-08T10:38:16.067Z,100
2016-06-08T10:39:16.163Z,100
2016-06-08T10:40:18.744Z,100
2016-06-08T10:41:15.934Z,100
2016-06-08T10:42:15.984Z,100
2016-06-08T10:43:16.095Z,100
2016-06-08T10:44:15.817Z,100
2016-06-08T10:45:16.304Z,100
2016-06-08T10:46:16.416Z,100
2016-06-08T10:47:18.716Z,100
2016-06-08T10:48:15.874Z,100
2016-06-08T10:49:15.736Z,100
2016-06-08T10:50:15.614Z,105
2016-06-08T10:51:16.070Z,105
2016-06-08T10:52:18.541Z,105
2016-06-08T10:53:15.341Z,105
2016-06-08T10:54:15.547Z,105
2016-06-08T10:55:15.238Z,105
2016-06-08T10:56:15.318Z,105
2016-06-08T10:57:15.445Z,110
2016-06-08T10:58:15.276Z,110
2016-06-08T10:59:16.529Z,110
2016-06-08T11:00:16.173Z,110
2016-06-08T11:01:15.066Z,110
2016-06-08T11:02:15.054Z,120
2016-06-08T11:03:15.227Z,115
2016-06-08T11:04:15.090Z,115
2016-06-08T11:05:15.186Z,115
2016-06-08T11:06:15.032Z,125
2016-06-08T11:07:14.723Z,140
2016-06-08T11:08:14.788Z,135
2016-06-08T11:09:17.884Z,105
2016-06-08T11:10:20.606Z,110
2016-06-08T11:11:14.702Z,110
2016-06-08T11:12:14.642Z,135
2016-06-08T11:13:17.614Z,140
2016-06-08T11:14:14.960Z,115
2016-06-08T11:15:15.619Z,110
2016-06-08T11:16:14.497Z,115
2016-06-08T11:17:14.608Z,120
2016-06-08T11:18:14.408Z,125
2016-06-08T11:19:14.692Z,130
2016-06-08T11:20:14.210Z,135
2016-06-08T11:21:14.589Z,150
2016-06-08T11:22:14.717Z,155
2016-06-08T11:23:14.140Z,150
2016-06-08T11:24:14.113Z,150
2016-06-08T11:25:14.161Z,130
2016-06-08T11:26:14.071Z,130
2016-06-08T11:27:14.089Z,130
2016-06-08T11:28:13.982Z,130
2016-06-08T11:29:17.938Z,130
2016-06-08T11:30:14.472Z,135
2016-06-08T11:31:13.943Z,140
2016-06-08T11:32:13.790Z,150
2016-06-08T11:33:13.652Z,160
2016-06-08T11:34:13.951Z,185
2016-06-08T11:35:19.782Z,180
2016-06-08T11:36:13.645Z,150
2016-06-08T11:37:13.568Z,140
2016-06-08T11:38:23.290Z,145
2016-06-08T11:39:13.511Z,140
2016-06-08T11:40:13.311Z,145
2016-06-08T11:41:13.409Z,160
2016-06-08T11:42:13.457Z,175
2016-06-08T11:43:13.335Z,155
2016-06-08T11:44:16.541Z,185
2016-06-08T11:45:13.794Z,165
2016-06-08T11:46:13.203Z,170
2016-06-08T11:47:16.331Z,160
2016-06-08T11:48:12.723Z,160
2016-06-08T11:49:13.273Z,160
2016-06-08T11:50:15.635Z,160
2016-06-08T11:51:13.716Z,160
2016-06-08T11:52:13.078Z,160
2016-06-08T11:53:12.643Z,165
2016-06-08T11:54:19.130Z,160
2016-06-08T11:55:15.555Z,165
2016-06-08T11:56:12.791Z,170
2016-06-08T11:57:15.592Z,165
2016-06-08T11:58:12.938Z,175
2016-06-08T11:59:15.596Z,175
2016-06-08T12:00:34.896Z,175
2016-06-08T12:01:12.602Z,185
2016-06-08T12:02:32.792Z,180
2016-06-08T12:03:30.686Z,170
2016-06-08T12:04:12.501Z,170
2016-06-08T12:05:15.440Z,200
2016-06-08T12:06:15.382Z,185
2016-06-08T12:07:12.493Z,175
2016-06-08T12:08:12.293Z,175
2016-06-08T12:09:35.249Z,175
2016-06-08T12:10:12.454Z,160
2016-06-08T12:11:15.285Z,145
2016-06-08T12:12:15.570Z,140
2016-06-08T12:13:14.306Z,130
2016-06-08T12:14:15.231Z,130
2016-06-08T12:15:15.312Z,120
2016-06-08T12:16:13.220Z,125
2016-06-08T12:17:11.958Z,125
2016-06-08T12:18:14.601Z,130
2016-06-08T12:19:12.041Z,130
2016-06-08T12:20:11.700Z,130
2016-06-08T12:21:11.796Z,130
2016-06-08T12:22:11.705Z,130
2016-06-08T12:23:11.646Z,125
2016-06-08T12:24:11.508Z,125
2016-06-08T12:25:11.604Z,120
2016-06-08T12:26:11.607Z,120
2016-06-08T12:27:11.110Z,120
2016-06-08T12:28:14.753Z,120
2016-06-08T12:29:15.616Z,115
2016-06-08T12:30:11.227Z,115
2016-06-08T12:31:14.338Z,115
2016-06-08T12:32:14.936Z,115
2016-06-08T12:33:17.313Z,115
2016-06-08T12:34:14.847Z,110
2016-06-08T12:35:11.381Z,110
2016-06-08T12:36:11.118Z,110
2016-06-08T12:37:11.074Z,110
2016-06-08T12:38:20.076Z,110
2016-06-08T12:39:13.985Z,110
2016-06-08T12:40:11.160Z,110
2016-06-08T12:41:13.975Z,115
2016-06-08T12:42:13.868Z,115
2016-06-08T12:43:16.965Z,120
2016-06-08T12:44:11.640Z,120
2016-06-08T12:45:10.626Z,120
2016-06-08T12:46:10.708Z,125
2016-06-08T12:47:13.664Z,120
2016-06-08T12:48:10.650Z,120
2016-06-08T12:49:10.653Z,120
2016-06-08T12:50:10.562Z,115
2016-06-08T12:51:10.674Z,110
2016-06-08T12:52:13.380Z,120
2016-06-08T12:53:13.445Z,130
2016-06-08T12:54:10.369Z,130
2016-06-08T12:55:10.841Z,135
2016-06-08T12:56:10.813Z,140
2016-06-08T12:57:13.455Z,150
2016-06-08T12:58:10.647Z,150
2016-06-08T12:59:10.227Z,155
2016-06-08T13:00:11.089Z,160
2016-06-08T13:01:27.608Z,160
2016-06-08T13:02:12.876Z,160
2016-06-08T13:03:10.035Z,185
2016-06-08T13:04:10.224Z,180
2016-06-08T13:05:12.930Z,180
2016-06-08T13:06:09.887Z,195
2016-06-08T13:07:10.514Z,210
2016-06-08T13:08:13.048Z,200
2016-06-08T13:09:09.940Z,205
2016-06-08T13:10:15.928Z,205
2016-06-08T13:11:10.057Z,200
2016-06-08T13:12:09.731Z,200
2016-06-08T13:13:09.561Z,225
2016-06-08T13:14:12.986Z,225
2016-06-08T13:15:10.082Z,225
2016-06-08T13:16:09.507Z,195
2016-06-08T13:17:12.587Z,180
2016-06-08T13:18:09.559Z,210
2016-06-08T13:19:09.421Z,210
2016-06-08T13:20:09.595Z,215
2016-06-08T13:21:15.318Z,215
2016-06-08T13:22:15.617Z,225
2016-06-08T13:23:12.572Z,230
2016-06-08T13:24:12.091Z,245
2016-06-08T13:25:09.438Z,245
2016-06-08T13:26:12.019Z,255
2016-06-08T13:27:15.068Z,230
2016-06-08T13:28:09.211Z,225
2016-06-08T13:29:09.105Z,220
2016-06-08T13:30:09.451Z,225
2016-06-08T13:31:11.829Z,225
2016-06-08T13:32:11.769Z,220
2016-06-08T13:33:09.099Z,230
2016-06-08T13:34:09.290Z,235
2016-06-08T13:35:08.590Z,230
2016-06-08T13:36:08.827Z,230
2016-06-08T13:37:08.641Z,225
2016-06-08T13:38:08.737Z,225
2016-06-08T13:39:08.537Z,235
2016-06-08T13:40:08.510Z,230
2016-06-08T13:41:08.621Z,225
2016-06-08T13:42:08.374Z,230
2016-06-08T13:43:08.517Z,230
2016-06-08T13:44:08.457Z,230
2016-06-08T13:45:09.132Z,235
2016-06-08T13:46:11.635Z,225
2016-06-08T13:47:09.137Z,215
2016-06-08T13:48:08.203Z,210
2016-06-08T13:49:11.081Z,210
2016-06-08T13:50:08.020Z,225
2016-06-08T13:51:08.320Z,230
2016-06-08T13:52:08.010Z,230
2016-06-08T13:53:08.138Z,230
2016-06-08T13:54:11.141Z,225
2016-06-08T13:55:07.830Z,220
2016-06-08T13:56:13.756Z,215
2016-06-08T13:57:07.805Z,215
2016-06-08T13:58:10.916Z,200
2016-06-08T13:59:10.686Z,195
2016-06-08T14:00:08.125Z,190
2016-06-08T14:01:11.144Z,185
2016-06-08T14:02:13.537Z,180
2016-06-08T14:03:10.711Z,180
2016-06-08T14:04:10.761Z,185
2016-06-08T14:05:13.686Z,185
2016-06-08T14:06:13.251Z,185
2016-06-08T14:07:10.472Z,180
2016-06-08T14:08:07.319Z,180
2016-06-08T14:09:10.477Z,175
2016-06-08T14:10:10.464Z,175
2016-06-08T14:11:07.124Z,180
2016-06-08T14:12:07.329Z,185
2016-06-08T14:13:07.154Z,190
2016-06-08T14:14:10.253Z,195
2016-06-08T14:15:07.915Z,195